sensor_id;sensor_type;location;lat;lon;timestamp;P1;durP1;ratioP1;P2;durP2;ratioP2
48401;SDS011;34201;52.438;16.744;2022-09-27T00:01:01;0.10;;;0.10;;
48401;SDS011;34201;52.438;16.744;2022-09-27T00:03:28;0.20;;;0.20;;
48401;SDS011;34201;52.438;16.744;2022-09-27T00:06:01;0.10;;;0.10;;
48401;SDS011;34201;52.438;16.744;2022-09-27T00:08:29;0.20;;;0.20;;
48401;SDS011;34201;52.438;16.744;2022-09-27T00:11:15;0.10;;;0.10;;
48401;SDS011;34201;52.438;16.744;2022-09-27T00:13:47;0.10;;;0.10;;
48401;SDS011;34201;52.438;16.744;2022-09-27T00:16:12;0.20;;;0.20;;
48401;SDS011;34201;52.438;16.744;2022-09-27T00:18:38;0.20;;;0.20;;
48401;SDS011;34201;52.438;16.744;2022-09-27T00:21:06;0.13;;;0.13;;
48401;SDS011;34201;52.438;16.744;2022-09-27T00:23:34;0.20;;;0.20;;
48401;SDS011;34201;52.438;16.744;2022-09-27T00:25:59;0.15;;;0.15;;
48401;SDS011;34201;52.438;16.744;2022-09-27T00:28:25;0.10;;;0.10;;
48401;SDS011;34201;52.438;16.744;2022-09-27T00:30:50;0.10;;;0.10;;
48401;SDS011;34201;52.438;16.744;2022-09-27T00:33:16;0.10;;;0.10;;
48401;SDS011;34201;52.438;16.744;2022-09-27T00:35:42;0.10;;;0.10;;
48401;SDS011;34201;52.438;16.744;2022-09-27T00:38:08;0.25;;;0.25;;
48401;SDS011;34201;52.438;16.744;2022-09-27T00:40:33;0.20;;;0.20;;
48401;SDS011;34201;52.438;16.744;2022-09-27T00:42:58;0.10;;;0.10;;
48401;SDS011;34201;52.438;16.744;2022-09-27T00:45:24;0.20;;;0.20;;
48401;SDS011;34201;52.438;16.744;2022-09-27T00:47:57;0.20;;;0.20;;
48401;SDS011;34201;52.438;16.744;2022-09-27T00:50:31;0.17;;;0.17;;
48401;SDS011;34201;52.438;16.744;2022-09-27T00:55:28;0.20;;;0.20;;
48401;SDS011;34201;52.438;16.744;2022-09-27T00:57:57;0.20;;;0.20;;
48401;SDS011;34201;52.438;16.744;2022-09-27T01:00:22;0.10;;;0.10;;
48401;SDS011;34201;52.438;16.744;2022-09-27T01:02:49;0.10;;;0.10;;
48401;SDS011;34201;52.438;16.744;2022-09-27T01:05:17;0.20;;;0.20;;
48401;SDS011;34201;52.438;16.744;2022-09-27T01:07:45;0.20;;;0.20;;
48401;SDS011;34201;52.438;16.744;2022-09-27T01:10:10;0.10;;;0.10;;
48401;SDS011;34201;52.438;16.744;2022-09-27T01:21:06;0.30;;;0.30;;
48401;SDS011;34201;52.438;16.744;2022-09-27T01:26:41;0.20;;;0.20;;
48401;SDS011;34201;52.438;16.744;2022-09-27T01:31:54;0.20;;;0.20;;
48401;SDS011;34201;52.438;16.744;2022-09-27T01:34:34;0.17;;;0.17;;
48401;SDS011;34201;52.438;16.744;2022-09-27T01:37:18;0.30;;;0.30;;
48401;SDS011;34201;52.438;16.744;2022-09-27T01:42:35;0.20;;;0.20;;
48401;SDS011;34201;52.438;16.744;2022-09-27T01:45:03;0.10;;;0.10;;
48401;SDS011;34201;52.438;16.744;2022-09-27T01:47:39;0.20;;;0.20;;
48401;SDS011;34201;52.438;16.744;2022-09-27T01:50:51;0.20;;;0.20;;
48401;SDS011;34201;52.438;16.744;2022-09-27T01:56:07;0.15;;;0.15;;
48401;SDS011;34201;52.438;16.744;2022-09-27T02:01:26;0.20;;;0.20;;
48401;SDS011;34201;52.438;16.744;2022-09-27T02:03:53;0.20;;;0.20;;
48401;SDS011;34201;52.438;16.744;2022-09-27T02:06:27;0.20;;;0.20;;
48401;SDS011;34201;52.438;16.744;2022-09-27T02:11:26;0.15;;;0.15;;
48401;SDS011;34201;52.438;16.744;2022-09-27T02:16:53;0.20;;;0.20;;
48401;SDS011;34201;52.438;16.744;2022-09-27T02:19:26;0.20;;;0.20;;
48401;SDS011;34201;52.438;16.744;2022-09-27T02:24:29;0.10;;;0.10;;
48401;SDS011;34201;52.438;16.744;2022-09-27T02:27:05;0.10;;;0.10;;
48401;SDS011;34201;52.438;16.744;2022-09-27T02:29:37;0.10;;;0.10;;
48401;SDS011;34201;52.438;16.744;2022-09-27T02:32:07;0.20;;;0.20;;
48401;SDS011;34201;52.438;16.744;2022-09-27T02:34:32;0.20;;;0.20;;
48401;SDS011;34201;52.438;16.744;2022-09-27T02:37:01;0.10;;;0.10;;
48401;SDS011;34201;52.438;16.744;2022-09-27T02:39:26;0.20;;;0.20;;
48401;SDS011;34201;52.438;16.744;2022-09-27T02:41:52;0.20;;;0.20;;
48401;SDS011;34201;52.438;16.744;2022-09-27T02:44:22;0.10;;;0.10;;
48401;SDS011;34201;52.438;16.744;2022-09-27T03:00:36;0.10;;;0.10;;
48401;SDS011;34201;52.438;16.744;2022-09-27T03:03:12;0.20;;;0.20;;
48401;SDS011;34201;52.438;16.744;2022-09-27T03:05:48;0.10;;;0.10;;
48401;SDS011;34201;52.438;16.744;2022-09-27T03:08:17;0.10;;;0.10;;
48401;SDS011;34201;52.438;16.744;2022-09-27T03:10:44;0.20;;;0.20;;
48401;SDS011;34201;52.438;16.744;2022-09-27T03:13:09;0.10;;;0.10;;
48401;SDS011;34201;52.438;16.744;2022-09-27T03:15:34;0.10;;;0.10;;
48401;SDS011;34201;52.438;16.744;2022-09-27T03:18:00;0.28;;;0.28;;
48401;SDS011;34201;52.438;16.744;2022-09-27T03:20:25;0.10;;;0.10;;
48401;SDS011;34201;52.438;16.744;2022-09-27T03:22:51;0.13;;;0.13;;
48401;SDS011;34201;52.438;16.744;2022-09-27T03:25:17;0.10;;;0.10;;
48401;SDS011;34201;52.438;16.744;2022-09-27T03:27:43;0.20;;;0.20;;
48401;SDS011;34201;52.438;16.744;2022-09-27T03:30:09;0.20;;;0.20;;
48401;SDS011;34201;52.438;16.744;2022-09-27T03:32:36;0.20;;;0.20;;
48401;SDS011;34201;52.438;16.744;2022-09-27T03:35:06;0.20;;;0.20;;
48401;SDS011;34201;52.438;16.744;2022-09-27T03:37:31;0.20;;;0.20;;
48401;SDS011;34201;52.438;16.744;2022-09-27T03:39:57;0.20;;;0.20;;
48401;SDS011;34201;52.438;16.744;2022-09-27T03:42:22;0.17;;;0.17;;
48401;SDS011;34201;52.438;16.744;2022-09-27T03:44:47;0.13;;;0.13;;
48401;SDS011;34201;52.438;16.744;2022-09-27T03:47:15;0.20;;;0.20;;
48401;SDS011;34201;52.438;16.744;2022-09-27T03:49:40;0.10;;;0.10;;
48401;SDS011;34201;52.438;16.744;2022-09-27T03:52:05;0.15;;;0.15;;
48401;SDS011;34201;52.438;16.744;2022-09-27T03:54:31;0.15;;;0.15;;
48401;SDS011;34201;52.438;16.744;2022-09-27T03:56:57;0.20;;;0.20;;
48401;SDS011;34201;52.438;16.744;2022-09-27T03:59:23;0.10;;;0.10;;
48401;SDS011;34201;52.438;16.744;2022-09-27T04:01:48;0.20;;;0.20;;
48401;SDS011;34201;52.438;16.744;2022-09-27T04:04:13;0.20;;;0.20;;
48401;SDS011;34201;52.438;16.744;2022-09-27T04:06:39;0.10;;;0.10;;
48401;SDS011;34201;52.438;16.744;2022-09-27T04:09:04;0.10;;;0.10;;
48401;SDS011;34201;52.438;16.744;2022-09-27T04:11:29;0.10;;;0.10;;
48401;SDS011;34201;52.438;16.744;2022-09-27T04:13:55;0.20;;;0.20;;
48401;SDS011;34201;52.438;16.744;2022-09-27T04:16:21;0.15;;;0.15;;
48401;SDS011;34201;52.438;16.744;2022-09-27T04:18:46;0.10;;;0.10;;
48401;SDS011;34201;52.438;16.744;2022-09-27T04:21:12;0.10;;;0.10;;
48401;SDS011;34201;52.438;16.744;2022-09-27T04:23:38;0.10;;;0.10;;
48401;SDS011;34201;52.438;16.744;2022-09-27T04:26:03;0.10;;;0.10;;
48401;SDS011;34201;52.438;16.744;2022-09-27T04:28:28;0.10;;;0.10;;
48401;SDS011;34201;52.438;16.744;2022-09-27T04:30:54;0.10;;;0.10;;
48401;SDS011;34201;52.438;16.744;2022-09-27T04:33:20;0.10;;;0.10;;
48401;SDS011;34201;52.438;16.744;2022-09-27T04:35:46;0.20;;;0.20;;
48401;SDS011;34201;52.438;16.744;2022-09-27T04:38:30;0.13;;;0.13;;
48401;SDS011;34201;52.438;16.744;2022-09-27T04:40:55;0.10;;;0.10;;
48401;SDS011;34201;52.438;16.744;2022-09-27T04:43:20;0.10;;;0.10;;
48401;SDS011;34201;52.438;16.744;2022-09-27T04:45:46;0.13;;;0.13;;
48401;SDS011;34201;52.438;16.744;2022-09-27T04:48:11;0.20;;;0.20;;
48401;SDS011;34201;52.438;16.744;2022-09-27T04:50:37;0.10;;;0.10;;
48401;SDS011;34201;52.438;16.744;2022-09-27T04:53:03;0.10;;;0.10;;
48401;SDS011;34201;52.438;16.744;2022-09-27T04:55:28;0.10;;;0.10;;
48401;SDS011;34201;52.438;16.744;2022-09-27T04:57:54;0.10;;;0.10;;
48401;SDS011;34201;52.438;16.744;2022-09-27T05:00:19;0.20;;;0.20;;
48401;SDS011;34201;52.438;16.744;2022-09-27T05:02:45;0.10;;;0.10;;
48401;SDS011;34201;52.438;16.744;2022-09-27T05:05:12;0.10;;;0.10;;
48401;SDS011;34201;52.438;16.744;2022-09-27T05:07:38;0.20;;;0.20;;
48401;SDS011;34201;52.438;16.744;2022-09-27T05:10:04;0.10;;;0.10;;
48401;SDS011;34201;52.438;16.744;2022-09-27T05:12:30;0.20;;;0.20;;
48401;SDS011;34201;52.438;16.744;2022-09-27T05:14:55;0.10;;;0.10;;
48401;SDS011;34201;52.438;16.744;2022-09-27T05:17:20;0.10;;;0.10;;
48401;SDS011;34201;52.438;16.744;2022-09-27T05:19:47;0.10;;;0.10;;
48401;SDS011;34201;52.438;16.744;2022-09-27T05:22:14;0.10;;;0.10;;
48401;SDS011;34201;52.438;16.744;2022-09-27T05:24:40;0.10;;;0.10;;
48401;SDS011;34201;52.438;16.744;2022-09-27T05:27:06;0.10;;;0.10;;
48401;SDS011;34201;52.438;16.744;2022-09-27T05:29:33;0.10;;;0.10;;
48401;SDS011;34201;52.438;16.744;2022-09-27T05:31:59;0.10;;;0.10;;
48401;SDS011;34201;52.438;16.744;2022-09-27T05:34:28;0.10;;;0.10;;
48401;SDS011;34201;52.438;16.744;2022-09-27T05:36:53;0.10;;;0.10;;
48401;SDS011;34201;52.438;16.744;2022-09-27T05:39:18;0.10;;;0.10;;
48401;SDS011;34201;52.438;16.744;2022-09-27T05:41:44;0.10;;;0.10;;
48401;SDS011;34201;52.438;16.744;2022-09-27T05:44:10;0.10;;;0.10;;
48401;SDS011;34201;52.438;16.744;2022-09-27T05:46:37;0.10;;;0.10;;
48401;SDS011;34201;52.438;16.744;2022-09-27T05:49:03;0.10;;;0.10;;
48401;SDS011;34201;52.438;16.744;2022-09-27T05:51:29;0.10;;;0.10;;
48401;SDS011;34201;52.438;16.744;2022-09-27T05:53:55;0.10;;;0.10;;
48401;SDS011;34201;52.438;16.744;2022-09-27T05:56:20;0.10;;;0.10;;
48401;SDS011;34201;52.438;16.744;2022-09-27T05:58:45;0.10;;;0.10;;
48401;SDS011;34201;52.438;16.744;2022-09-27T06:01:11;0.10;;;0.10;;
48401;SDS011;34201;52.438;16.744;2022-09-27T06:03:36;0.10;;;0.10;;
48401;SDS011;34201;52.438;16.744;2022-09-27T06:06:02;0.10;;;0.10;;
48401;SDS011;34201;52.438;16.744;2022-09-27T06:08:31;0.00;;;0.00;;
48401;SDS011;34201;52.438;16.744;2022-09-27T06:11:01;0.10;;;0.10;;
48401;SDS011;34201;52.438;16.744;2022-09-27T06:13:30;0.00;;;0.00;;
48401;SDS011;34201;52.438;16.744;2022-09-27T06:16:03;0.10;;;0.10;;
48401;SDS011;34201;52.438;16.744;2022-09-27T06:18:29;0.10;;;0.10;;
48401;SDS011;34201;52.438;16.744;2022-09-27T06:20:57;0.10;;;0.10;;
48401;SDS011;34201;52.438;16.744;2022-09-27T06:23:23;0.10;;;0.10;;
48401;SDS011;34201;52.438;16.744;2022-09-27T06:25:50;0.10;;;0.10;;
48401;SDS011;34201;52.438;16.744;2022-09-27T06:28:16;0.10;;;0.10;;
48401;SDS011;34201;52.438;16.744;2022-09-27T06:30:43;0.10;;;0.10;;
48401;SDS011;34201;52.438;16.744;2022-09-27T06:33:15;0.10;;;0.10;;
48401;SDS011;34201;52.438;16.744;2022-09-27T06:35:44;0.10;;;0.10;;
48401;SDS011;34201;52.438;16.744;2022-09-27T06:38:11;0.10;;;0.10;;
48401;SDS011;34201;52.438;16.744;2022-09-27T06:40:39;0.10;;;0.10;;
48401;SDS011;34201;52.438;16.744;2022-09-27T06:43:10;0.10;;;0.10;;
48401;SDS011;34201;52.438;16.744;2022-09-27T06:45:37;0.10;;;0.10;;
48401;SDS011;34201;52.438;16.744;2022-09-27T06:48:09;0.10;;;0.10;;
48401;SDS011;34201;52.438;16.744;2022-09-27T06:50:40;0.00;;;0.00;;
48401;SDS011;34201;52.438;16.744;2022-09-27T06:53:08;0.10;;;0.10;;
48401;SDS011;34201;52.438;16.744;2022-09-27T06:55:35;0.10;;;0.10;;
48401;SDS011;34201;52.438;16.744;2022-09-27T06:58:02;0.10;;;0.10;;
48401;SDS011;34201;52.438;16.744;2022-09-27T07:00:51;0.03;;;0.03;;
48401;SDS011;34201;52.438;16.744;2022-09-27T07:03:17;0.10;;;0.10;;
48401;SDS011;34201;52.438;16.744;2022-09-27T07:05:55;0.10;;;0.10;;
48401;SDS011;34201;52.438;16.744;2022-09-27T07:08:30;0.10;;;0.10;;
48401;SDS011;34201;52.438;16.744;2022-09-27T07:11:02;0.00;;;0.00;;
48401;SDS011;34201;52.438;16.744;2022-09-27T07:13:30;0.00;;;0.00;;
48401;SDS011;34201;52.438;16.744;2022-09-27T07:15:58;0.10;;;0.10;;
48401;SDS011;34201;52.438;16.744;2022-09-27T07:18:24;0.10;;;0.10;;
48401;SDS011;34201;52.438;16.744;2022-09-27T07:20:50;0.00;;;0.00;;
48401;SDS011;34201;52.438;16.744;2022-09-27T07:23:15;0.00;;;0.00;;
48401;SDS011;34201;52.438;16.744;2022-09-27T07:25:41;0.10;;;0.10;;
48401;SDS011;34201;52.438;16.744;2022-09-27T07:28:08;0.00;;;0.00;;
48401;SDS011;34201;52.438;16.744;2022-09-27T07:30:41;0.00;;;0.00;;
48401;SDS011;34201;52.438;16.744;2022-09-27T07:33:07;0.00;;;0.00;;
48401;SDS011;34201;52.438;16.744;2022-09-27T07:35:33;0.10;;;0.10;;
48401;SDS011;34201;52.438;16.744;2022-09-27T07:38:02;0.00;;;0.00;;
48401;SDS011;34201;52.438;16.744;2022-09-27T07:40:29;0.10;;;0.10;;
48401;SDS011;34201;52.438;16.744;2022-09-27T07:42:55;0.08;;;0.08;;
48401;SDS011;34201;52.438;16.744;2022-09-27T07:45:21;0.10;;;0.10;;
48401;SDS011;34201;52.438;16.744;2022-09-27T07:47:47;0.03;;;0.03;;
48401;SDS011;34201;52.438;16.744;2022-09-27T07:50:12;0.08;;;0.08;;
48401;SDS011;34201;52.438;16.744;2022-09-27T07:52:41;0.08;;;0.08;;
48401;SDS011;34201;52.438;16.744;2022-09-27T07:55:09;0.10;;;0.10;;
48401;SDS011;34201;52.438;16.744;2022-09-27T07:57:35;0.00;;;0.00;;
48401;SDS011;34201;52.438;16.744;2022-09-27T08:00:05;0.00;;;0.00;;
48401;SDS011;34201;52.438;16.744;2022-09-27T08:02:33;0.00;;;0.00;;
48401;SDS011;34201;52.438;16.744;2022-09-27T08:04:59;0.00;;;0.00;;
48401;SDS011;34201;52.438;16.744;2022-09-27T08:07:24;0.00;;;0.00;;
48401;SDS011;34201;52.438;16.744;2022-09-27T08:09:50;0.00;;;0.00;;
48401;SDS011;34201;52.438;16.744;2022-09-27T08:12:16;0.00;;;0.00;;
48401;SDS011;34201;52.438;16.744;2022-09-27T08:14:42;0.00;;;0.00;;
48401;SDS011;34201;52.438;16.744;2022-09-27T08:17:11;0.00;;;0.00;;
48401;SDS011;34201;52.438;16.744;2022-09-27T08:19:36;0.00;;;0.00;;
48401;SDS011;34201;52.438;16.744;2022-09-27T08:22:01;0.00;;;0.00;;
48401;SDS011;34201;52.438;16.744;2022-09-27T08:24:27;0.00;;;0.00;;
48401;SDS011;34201;52.438;16.744;2022-09-27T08:26:53;0.00;;;0.00;;
48401;SDS011;34201;52.438;16.744;2022-09-27T08:29:19;0.03;;;0.03;;
48401;SDS011;34201;52.438;16.744;2022-09-27T08:31:44;0.00;;;0.00;;
48401;SDS011;34201;52.438;16.744;2022-09-27T08:34:09;0.00;;;0.00;;
48401;SDS011;34201;52.438;16.744;2022-09-27T08:36:35;0.00;;;0.00;;
48401;SDS011;34201;52.438;16.744;2022-09-27T08:39:01;0.00;;;0.00;;
48401;SDS011;34201;52.438;16.744;2022-09-27T08:41:51;0.00;;;0.00;;
48401;SDS011;34201;52.438;16.744;2022-09-27T08:47:46;0.00;;;0.00;;
48401;SDS011;34201;52.438;16.744;2022-09-27T08:50:25;0.00;;;0.00;;
48401;SDS011;34201;52.438;16.744;2022-09-27T08:52:55;0.00;;;0.00;;
48401;SDS011;34201;52.438;16.744;2022-09-27T08:55:31;0.00;;;0.00;;
48401;SDS011;34201;52.438;16.744;2022-09-27T08:58:01;0.00;;;0.00;;
48401;SDS011;34201;52.438;16.744;2022-09-27T09:00:35;0.00;;;0.00;;
48401;SDS011;34201;52.438;16.744;2022-09-27T09:03:00;0.00;;;0.00;;
48401;SDS011;34201;52.438;16.744;2022-09-27T09:05:28;0.00;;;0.00;;
48401;SDS011;34201;52.438;16.744;2022-09-27T09:10:50;0.00;;;0.00;;
48401;SDS011;34201;52.438;16.744;2022-09-27T09:16:25;0.00;;;0.00;;
48401;SDS011;34201;52.438;16.744;2022-09-27T09:21:49;0.00;;;0.00;;
48401;SDS011;34201;52.438;16.744;2022-09-27T09:27:32;0.00;;;0.00;;
48401;SDS011;34201;52.438;16.744;2022-09-27T09:35:21;0.00;;;0.00;;
48401;SDS011;34201;52.438;16.744;2022-09-27T09:37:52;0.00;;;0.00;;
48401;SDS011;34201;52.438;16.744;2022-09-27T09:45:29;0.00;;;0.00;;
48401;SDS011;34201;52.438;16.744;2022-09-27T09:48:05;0.00;;;0.00;;
48401;SDS011;34201;52.438;16.744;2022-09-27T09:50:41;0.00;;;0.00;;
48401;SDS011;34201;52.438;16.744;2022-09-27T09:53:16;0.00;;;0.00;;
48401;SDS011;34201;52.438;16.744;2022-09-27T09:56:09;0.00;;;0.00;;
48401;SDS011;34201;52.438;16.744;2022-09-27T09:58:58;0.00;;;0.00;;
48401;SDS011;34201;52.438;16.744;2022-09-27T10:01:27;0.00;;;0.00;;
48401;SDS011;34201;52.438;16.744;2022-09-27T10:03:58;0.00;;;0.00;;
48401;SDS011;34201;52.438;16.744;2022-09-27T10:06:24;0.00;;;0.00;;
48401;SDS011;34201;52.438;16.744;2022-09-27T10:08:51;0.00;;;0.00;;
48401;SDS011;34201;52.438;16.744;2022-09-27T10:11:26;0.00;;;0.00;;
48401;SDS011;34201;52.438;16.744;2022-09-27T10:14:04;0.00;;;0.00;;
48401;SDS011;34201;52.438;16.744;2022-09-27T10:16:36;0.00;;;0.00;;
48401;SDS011;34201;52.438;16.744;2022-09-27T10:19:02;0.00;;;0.00;;
48401;SDS011;34201;52.438;16.744;2022-09-27T10:21:30;0.00;;;0.00;;
48401;SDS011;34201;52.438;16.744;2022-09-27T10:26:37;0.00;;;0.00;;
48401;SDS011;34201;52.438;16.744;2022-09-27T10:29:15;0.00;;;0.00;;
48401;SDS011;34201;52.438;16.744;2022-09-27T10:36:48;0.00;;;0.00;;
48401;SDS011;34201;52.438;16.744;2022-09-27T10:39:41;0.00;;;0.00;;
48401;SDS011;34201;52.438;16.744;2022-09-27T10:44:57;0.00;;;0.00;;
48401;SDS011;34201;52.438;16.744;2022-09-27T10:47:43;0.00;;;0.00;;
48401;SDS011;34201;52.438;16.744;2022-09-27T10:50:23;0.00;;;0.00;;
48401;SDS011;34201;52.438;16.744;2022-09-27T10:53:03;0.00;;;0.00;;
48401;SDS011;34201;52.438;16.744;2022-09-27T10:55:36;0.00;;;0.00;;
48401;SDS011;34201;52.438;16.744;2022-09-27T10:58:03;0.00;;;0.00;;
48401;SDS011;34201;52.438;16.744;2022-09-27T11:00:31;0.00;;;0.00;;
48401;SDS011;34201;52.438;16.744;2022-09-27T11:03:00;0.00;;;0.00;;
48401;SDS011;34201;52.438;16.744;2022-09-27T11:05:33;0.00;;;0.00;;
48401;SDS011;34201;52.438;16.744;2022-09-27T11:08:18;0.00;;;0.00;;
48401;SDS011;34201;52.438;16.744;2022-09-27T11:11:01;0.00;;;0.00;;
48401;SDS011;34201;52.438;16.744;2022-09-27T11:13:32;0.00;;;0.00;;
48401;SDS011;34201;52.438;16.744;2022-09-27T11:16:06;0.00;;;0.00;;
48401;SDS011;34201;52.438;16.744;2022-09-27T11:27:30;0.00;;;0.00;;
48401;SDS011;34201;52.438;16.744;2022-09-27T11:38:27;0.00;;;0.00;;
48401;SDS011;34201;52.438;16.744;2022-09-27T11:41:09;0.00;;;0.00;;
48401;SDS011;34201;52.438;16.744;2022-09-27T11:46:37;0.00;;;0.00;;
48401;SDS011;34201;52.438;16.744;2022-09-27T11:49:45;0.00;;;0.00;;
48401;SDS011;34201;52.438;16.744;2022-09-27T11:54:55;0.00;;;0.00;;
48401;SDS011;34201;52.438;16.744;2022-09-27T11:57:27;0.00;;;0.00;;
48401;SDS011;34201;52.438;16.744;2022-09-27T12:00:01;0.00;;;0.00;;
48401;SDS011;34201;52.438;16.744;2022-09-27T12:08:26;0.00;;;0.00;;
48401;SDS011;34201;52.438;16.744;2022-09-27T12:17:01;0.00;;;0.00;;
48401;SDS011;34201;52.438;16.744;2022-09-27T12:19:35;0.00;;;0.00;;
48401;SDS011;34201;52.438;16.744;2022-09-27T12:22:06;0.00;;;0.00;;
48401;SDS011;34201;52.438;16.744;2022-09-27T12:24:38;0.00;;;0.00;;
48401;SDS011;34201;52.438;16.744;2022-09-27T12:27:06;0.00;;;0.00;;
48401;SDS011;34201;52.438;16.744;2022-09-27T12:29:38;0.00;;;0.00;;
48401;SDS011;34201;52.438;16.744;2022-09-27T12:32:25;0.00;;;0.00;;
48401;SDS011;34201;52.438;16.744;2022-09-27T12:35:01;0.00;;;0.00;;
48401;SDS011;34201;52.438;16.744;2022-09-27T12:37:42;0.00;;;0.00;;
48401;SDS011;34201;52.438;16.744;2022-09-27T12:40:20;0.00;;;0.00;;
48401;SDS011;34201;52.438;16.744;2022-09-27T12:51:05;0.00;;;0.00;;
48401;SDS011;34201;52.438;16.744;2022-09-27T12:59:06;0.00;;;0.00;;
48401;SDS011;34201;52.438;16.744;2022-09-27T13:07:39;0.00;;;0.00;;
48401;SDS011;34201;52.438;16.744;2022-09-27T13:13:09;0.00;;;0.00;;
48401;SDS011;34201;52.438;16.744;2022-09-27T13:15:37;0.00;;;0.00;;
48401;SDS011;34201;52.438;16.744;2022-09-27T13:19:13;0.00;;;0.00;;
48401;SDS011;34201;52.438;16.744;2022-09-27T13:21:03;0.00;;;0.00;;
48401;SDS011;34201;52.438;16.744;2022-09-27T13:26:02;0.00;;;0.00;;
48401;SDS011;34201;52.438;16.744;2022-09-27T13:28:34;0.00;;;0.00;;
48401;SDS011;34201;52.438;16.744;2022-09-27T13:40:20;0.00;;;0.00;;
48401;SDS011;34201;52.438;16.744;2022-09-27T13:47:52;0.00;;;0.00;;
48401;SDS011;34201;52.438;16.744;2022-09-27T13:56:45;0.00;;;0.00;;
48401;SDS011;34201;52.438;16.744;2022-09-27T13:59:22;0.00;;;0.00;;
48401;SDS011;34201;52.438;16.744;2022-09-27T14:02:03;0.00;;;0.00;;
48401;SDS011;34201;52.438;16.744;2022-09-27T14:04:45;0.00;;;0.00;;
48401;SDS011;34201;52.438;16.744;2022-09-27T14:07:15;0.00;;;0.00;;
48401;SDS011;34201;52.438;16.744;2022-09-27T14:09:58;0.00;;;0.00;;
48401;SDS011;34201;52.438;16.744;2022-09-27T14:12:28;0.00;;;0.00;;
48401;SDS011;34201;52.438;16.744;2022-09-27T14:14:57;0.00;;;0.00;;
48401;SDS011;34201;52.438;16.744;2022-09-27T14:17:24;0.00;;;0.00;;
48401;SDS011;34201;52.438;16.744;2022-09-27T14:19:50;0.00;;;0.00;;
48401;SDS011;34201;52.438;16.744;2022-09-27T14:22:18;0.00;;;0.00;;
48401;SDS011;34201;52.438;16.744;2022-09-27T14:25:12;0.00;;;0.00;;
48401;SDS011;34201;52.438;16.744;2022-09-27T14:27:44;0.00;;;0.00;;
48401;SDS011;34201;52.438;16.744;2022-09-27T14:30:13;0.00;;;0.00;;
48401;SDS011;34201;52.438;16.744;2022-09-27T14:32:51;0.00;;;0.00;;
48401;SDS011;34201;52.438;16.744;2022-09-27T14:35:25;0.00;;;0.00;;
48401;SDS011;34201;52.438;16.744;2022-09-27T14:38:20;0.00;;;0.00;;
48401;SDS011;34201;52.438;16.744;2022-09-27T14:43:17;0.00;;;0.00;;
48401;SDS011;34201;52.438;16.744;2022-09-27T14:45:44;0.00;;;0.00;;
48401;SDS011;34201;52.438;16.744;2022-09-27T14:48:25;0.00;;;0.00;;
48401;SDS011;34201;52.438;16.744;2022-09-27T14:50:59;0.00;;;0.00;;
48401;SDS011;34201;52.438;16.744;2022-09-27T14:53:28;0.00;;;0.00;;
48401;SDS011;34201;52.438;16.744;2022-09-27T14:55:59;0.00;;;0.00;;
48401;SDS011;34201;52.438;16.744;2022-09-27T14:58:26;0.00;;;0.00;;
48401;SDS011;34201;52.438;16.744;2022-09-27T15:00:54;0.00;;;0.00;;
48401;SDS011;34201;52.438;16.744;2022-09-27T15:03:30;0.00;;;0.00;;
48401;SDS011;34201;52.438;16.744;2022-09-27T15:05:57;0.00;;;0.00;;
48401;SDS011;34201;52.438;16.744;2022-09-27T15:08:24;0.00;;;0.00;;
48401;SDS011;34201;52.438;16.744;2022-09-27T15:10:54;0.00;;;0.00;;
48401;SDS011;34201;52.438;16.744;2022-09-27T15:13:21;0.00;;;0.00;;
48401;SDS011;34201;52.438;16.744;2022-09-27T15:15:49;0.00;;;0.00;;
48401;SDS011;34201;52.438;16.744;2022-09-27T15:19:16;0.00;;;0.00;;
48401;SDS011;34201;52.438;16.744;2022-09-27T15:21:29;0.00;;;0.00;;
48401;SDS011;34201;52.438;16.744;2022-09-27T15:23:56;0.00;;;0.00;;
48401;SDS011;34201;52.438;16.744;2022-09-27T15:26:24;0.00;;;0.00;;
48401;SDS011;34201;52.438;16.744;2022-09-27T15:29:18;0.00;;;0.00;;
48401;SDS011;34201;52.438;16.744;2022-09-27T15:31:55;0.00;;;0.00;;
48401;SDS011;34201;52.438;16.744;2022-09-27T15:34:30;0.00;;;0.00;;
48401;SDS011;34201;52.438;16.744;2022-09-27T15:36:58;0.00;;;0.00;;
48401;SDS011;34201;52.438;16.744;2022-09-27T15:39:39;0.00;;;0.00;;
48401;SDS011;34201;52.438;16.744;2022-09-27T15:42:09;0.00;;;0.00;;
48401;SDS011;34201;52.438;16.744;2022-09-27T15:47:36;0.00;;;0.00;;
48401;SDS011;34201;52.438;16.744;2022-09-27T15:52:48;0.00;;;0.00;;
48401;SDS011;34201;52.438;16.744;2022-09-27T15:55:19;0.00;;;0.00;;
48401;SDS011;34201;52.438;16.744;2022-09-27T15:57:59;0.00;;;0.00;;
48401;SDS011;34201;52.438;16.744;2022-09-27T16:00:27;0.00;;;0.00;;
48401;SDS011;34201;52.438;16.744;2022-09-27T16:02:53;0.00;;;0.00;;
48401;SDS011;34201;52.438;16.744;2022-09-27T16:05:19;0.00;;;0.00;;
48401;SDS011;34201;52.438;16.744;2022-09-27T16:07:47;0.00;;;0.00;;
48401;SDS011;34201;52.438;16.744;2022-09-27T16:10:13;0.00;;;0.00;;
48401;SDS011;34201;52.438;16.744;2022-09-27T16:12:41;0.00;;;0.00;;
48401;SDS011;34201;52.438;16.744;2022-09-27T16:15:09;0.00;;;0.00;;
48401;SDS011;34201;52.438;16.744;2022-09-27T16:17:35;0.00;;;0.00;;
48401;SDS011;34201;52.438;16.744;2022-09-27T16:20:02;0.00;;;0.00;;
48401;SDS011;34201;52.438;16.744;2022-09-27T16:22:28;0.00;;;0.00;;
48401;SDS011;34201;52.438;16.744;2022-09-27T16:24:54;0.00;;;0.00;;
48401;SDS011;34201;52.438;16.744;2022-09-27T16:27:23;0.00;;;0.00;;
48401;SDS011;34201;52.438;16.744;2022-09-27T16:29:51;0.00;;;0.00;;
48401;SDS011;34201;52.438;16.744;2022-09-27T16:32:17;0.00;;;0.00;;
48401;SDS011;34201;52.438;16.744;2022-09-27T16:34:43;0.00;;;0.00;;
48401;SDS011;34201;52.438;16.744;2022-09-27T16:37:08;0.00;;;0.00;;
48401;SDS011;34201;52.438;16.744;2022-09-27T16:39:35;0.00;;;0.00;;
48401;SDS011;34201;52.438;16.744;2022-09-27T16:42:00;0.00;;;0.00;;
48401;SDS011;34201;52.438;16.744;2022-09-27T16:44:29;0.00;;;0.00;;
48401;SDS011;34201;52.438;16.744;2022-09-27T16:46:55;0.00;;;0.00;;
48401;SDS011;34201;52.438;16.744;2022-09-27T16:49:20;0.00;;;0.00;;
48401;SDS011;34201;52.438;16.744;2022-09-27T16:52:04;0.00;;;0.00;;
48401;SDS011;34201;52.438;16.744;2022-09-27T16:54:29;0.00;;;0.00;;
48401;SDS011;34201;52.438;16.744;2022-09-27T16:56:56;0.08;;;0.08;;
48401;SDS011;34201;52.438;16.744;2022-09-27T16:59:22;0.05;;;0.05;;
48401;SDS011;34201;52.438;16.744;2022-09-27T17:01:49;0.10;;;0.10;;
48401;SDS011;34201;52.438;16.744;2022-09-27T17:04:15;0.10;;;0.10;;
48401;SDS011;34201;52.438;16.744;2022-09-27T17:06:40;0.10;;;0.10;;
48401;SDS011;34201;52.438;16.744;2022-09-27T17:09:05;0.10;;;0.10;;
48401;SDS011;34201;52.438;16.744;2022-09-27T17:11:31;0.00;;;0.00;;
48401;SDS011;34201;52.438;16.744;2022-09-27T17:13:56;0.08;;;0.08;;
48401;SDS011;34201;52.438;16.744;2022-09-27T17:16:22;0.00;;;0.00;;
48401;SDS011;34201;52.438;16.744;2022-09-27T17:18:48;0.10;;;0.10;;
48401;SDS011;34201;52.438;16.744;2022-09-27T17:21:14;0.03;;;0.03;;
48401;SDS011;34201;52.438;16.744;2022-09-27T17:23:40;0.00;;;0.00;;
48401;SDS011;34201;52.438;16.744;2022-09-27T17:28:39;0.10;;;0.10;;
48401;SDS011;34201;52.438;16.744;2022-09-27T17:31:06;0.10;;;0.10;;
48401;SDS011;34201;52.438;16.744;2022-09-27T17:33:35;0.00;;;0.00;;
48401;SDS011;34201;52.438;16.744;2022-09-27T17:36:06;0.00;;;0.00;;
48401;SDS011;34201;52.438;16.744;2022-09-27T17:38:32;0.00;;;0.00;;
48401;SDS011;34201;52.438;16.744;2022-09-27T17:40:58;0.10;;;0.10;;
48401;SDS011;34201;52.438;16.744;2022-09-27T17:43:28;0.10;;;0.10;;